sensor_id;sensor_type;location;lat;lon;timestamp;pressure;altitude;pressure_sealevel;temperature;humidity
45285;BME280;31026;43.780;25.948;2023-04-08T00:01:01;101303.81;;;17.08;71.22
45285;BME280;31026;43.780;25.948;2023-04-08T00:03:29;101312.19;;;17.04;71.26
45285;BME280;31026;43.780;25.948;2023-04-08T00:05:57;101319.00;;;17.08;71.10
45285;BME280;31026;43.780;25.948;2023-04-08T00:08:27;101324.91;;;17.00;71.15
45285;BME280;31026;43.780;25.948;2023-04-08T00:10:56;101310.78;;;16.98;71.61
45285;BME280;31026;43.780;25.948;2023-04-08T00:13:27;101311.84;;;17.08;70.97
45285;BME280;31026;43.780;25.948;2023-04-08T00:15:55;101301.38;;;17.05;71.16
45285;BME280;31026;43.780;25.948;2023-04-08T00:18:23;101310.34;;;17.04;71.05
45285;BME280;31026;43.780;25.948;2023-04-08T00:20:52;101318.28;;;17.06;70.90
45285;BME280;31026;43.780;25.948;2023-04-08T00:23:21;101312.94;;;17.06;70.76
45285;BME280;31026;43.780;25.948;2023-04-08T00:25:49;101308.44;;;17.06;70.59
45285;BME280;31026;43.780;25.948;2023-04-08T00:28:18;101310.69;;;17.00;71.26
45285;BME280;31026;43.780;25.948;2023-04-08T00:30:49;101313.88;;;17.05;70.75
45285;BME280;31026;43.780;25.948;2023-04-08T00:33:17;101313.34;;;17.13;70.37
45285;BME280;31026;43.780;25.948;2023-04-08T00:35:46;101297.00;;;17.04;70.92
45285;BME280;31026;43.780;25.948;2023-04-08T00:38:15;101315.19;;;16.99;70.86
45285;BME280;31026;43.780;25.948;2023-04-08T00:40:43;101296.03;;;17.05;70.79
45285;BME280;31026;43.780;25.948;2023-04-08T00:43:11;101306.00;;;17.03;70.85
45285;BME280;31026;43.780;25.948;2023-04-08T00:45:40;101299.91;;;17.01;70.90
45285;BME280;31026;43.780;25.948;2023-04-08T00:48:11;101310.25;;;17.06;70.63
45285;BME280;31026;43.780;25.948;2023-04-08T00:50:41;101313.56;;;16.97;70.57
45285;BME280;31026;43.780;25.948;2023-04-08T00:53:11;101301.84;;;16.99;70.51
45285;BME280;31026;43.780;25.948;2023-04-08T00:55:40;101302.03;;;16.96;70.88
45285;BME280;31026;43.780;25.948;2023-04-08T00:58:08;101306.28;;;16.99;71.09
45285;BME280;31026;43.780;25.948;2023-04-08T01:00:37;101302.44;;;17.03;70.47
45285;BME280;31026;43.780;25.948;2023-04-08T01:03:13;101288.78;;;16.95;70.92
45285;BME280;31026;43.780;25.948;2023-04-08T01:05:44;101294.34;;;16.92;70.77
45285;BME280;31026;43.780;25.948;2023-04-08T01:08:18;101296.28;;;16.89;71.10
45285;BME280;31026;43.780;25.948;2023-04-08T01:10:47;101297.88;;;16.92;70.86
45285;BME280;31026;43.780;25.948;2023-04-08T01:13:17;101299.81;;;16.90;71.34
45285;BME280;31026;43.780;25.948;2023-04-08T01:15:45;101297.34;;;17.00;70.89
45285;BME280;31026;43.780;25.948;2023-04-08T01:18:17;101300.00;;;16.87;71.03
45285;BME280;31026;43.780;25.948;2023-04-08T01:20:46;101295.53;;;16.87;71.38
45285;BME280;31026;43.780;25.948;2023-04-08T01:23:15;101294.56;;;16.88;70.73
45285;BME280;31026;43.780;25.948;2023-04-08T01:25:48;101298.97;;;16.89;71.09
45285;BME280;31026;43.780;25.948;2023-04-08T01:28:16;101289.66;;;16.95;70.82
45285;BME280;31026;43.780;25.948;2023-04-08T01:30:46;101306.09;;;16.89;70.91
45285;BME280;31026;43.780;25.948;2023-04-08T01:33:16;101308.13;;;16.98;70.51
45285;BME280;31026;43.780;25.948;2023-04-08T01:35:46;101295.22;;;16.92;70.68
45285;BME280;31026;43.780;25.948;2023-04-08T01:38:16;101287.28;;;16.90;70.85
45285;BME280;31026;43.780;25.948;2023-04-08T01:40:47;101302.91;;;16.84;70.90
45285;BME280;31026;43.780;25.948;2023-04-08T01:43:17;101295.41;;;16.89;71.11
45285;BME280;31026;43.780;25.948;2023-04-08T01:45:46;101301.38;;;17.42;69.48
45285;BME280;31026;43.780;25.948;2023-04-08T01:48:18;101296.00;;;18.39;66.49
45285;BME280;31026;43.780;25.948;2023-04-08T01:50:47;101282.91;;;19.15;64.16
45285;BME280;31026;43.780;25.948;2023-04-08T01:53:16;101295.75;;;19.43;63.36
45285;BME280;31026;43.780;25.948;2023-04-08T01:55:44;101279.53;;;19.89;62.15
45285;BME280;31026;43.780;25.948;2023-04-08T01:58:17;101285.00;;;19.55;63.25
45285;BME280;31026;43.780;25.948;2023-04-08T02:00:47;101286.13;;;19.41;63.81
45285;BME280;31026;43.780;25.948;2023-04-08T02:03:16;101287.47;;;19.46;63.50
45285;BME280;31026;43.780;25.948;2023-04-08T02:05:45;101289.03;;;19.72;62.91
45285;BME280;31026;43.780;25.948;2023-04-08T02:08:13;101288.38;;;19.68;62.78
45285;BME280;31026;43.780;25.948;2023-04-08T02:10:41;101283.00;;;19.79;62.69
45285;BME280;31026;43.780;25.948;2023-04-08T02:13:10;101274.72;;;19.71;62.73
45285;BME280;31026;43.780;25.948;2023-04-08T02:15:41;101279.34;;;19.80;62.52
45285;BME280;31026;43.780;25.948;2023-04-08T02:18:15;101275.66;;;19.81;62.36
45285;BME280;31026;43.780;25.948;2023-04-08T02:20:47;101305.78;;;19.85;62.38
45285;BME280;31026;43.780;25.948;2023-04-08T02:23:18;101270.00;;;19.96;62.09
45285;BME280;31026;43.780;25.948;2023-04-08T02:25:47;101287.81;;;19.97;62.20
45285;BME280;31026;43.780;25.948;2023-04-08T02:28:16;101279.75;;;19.97;62.18
45285;BME280;31026;43.780;25.948;2023-04-08T02:30:49;101276.09;;;19.98;61.84
45285;BME280;31026;43.780;25.948;2023-04-08T02:33:19;101288.41;;;20.00;61.98
45285;BME280;31026;43.780;25.948;2023-04-08T02:35:48;101274.34;;;20.08;61.92
45285;BME280;31026;43.780;25.948;2023-04-08T02:38:18;101275.06;;;20.10;61.92
45285;BME280;31026;43.780;25.948;2023-04-08T02:40:48;101276.22;;;20.17;61.65
45285;BME280;31026;43.780;25.948;2023-04-08T02:43:16;101269.88;;;20.18;61.33
45285;BME280;31026;43.780;25.948;2023-04-08T02:45:48;101269.28;;;20.15;61.76
45285;BME280;31026;43.780;25.948;2023-04-08T02:48:16;101259.59;;;20.02;62.08
45285;BME280;31026;43.780;25.948;2023-04-08T02:50:44;101266.69;;;20.03;62.01
45285;BME280;31026;43.780;25.948;2023-04-08T02:53:13;101258.22;;;20.08;61.74
45285;BME280;31026;43.780;25.948;2023-04-08T02:55:41;101275.31;;;20.07;61.90
45285;BME280;31026;43.780;25.948;2023-04-08T02:58:09;101287.75;;;20.08;62.23
45285;BME280;31026;43.780;25.948;2023-04-08T03:00:37;101285.31;;;20.05;62.12
45285;BME280;31026;43.780;25.948;2023-04-08T03:03:08;101274.59;;;20.05;61.91
45285;BME280;31026;43.780;25.948;2023-04-08T03:05:36;101290.16;;;20.11;61.88
45285;BME280;31026;43.780;25.948;2023-04-08T03:08:05;101275.19;;;20.09;61.95
45285;BME280;31026;43.780;25.948;2023-04-08T03:10:33;101279.19;;;20.14;61.94
45285;BME280;31026;43.780;25.948;2023-04-08T03:13:02;101272.97;;;20.14;61.92
45285;BME280;31026;43.780;25.948;2023-04-08T03:15:30;101275.66;;;20.14;61.60
45285;BME280;31026;43.780;25.948;2023-04-08T03:17:58;101277.94;;;20.18;61.75
45285;BME280;31026;43.780;25.948;2023-04-08T03:20:29;101284.28;;;20.17;61.74
45285;BME280;31026;43.780;25.948;2023-04-08T03:22:57;101278.91;;;20.17;61.77
45285;BME280;31026;43.780;25.948;2023-04-08T03:25:26;101292.31;;;20.17;61.95
45285;BME280;31026;43.780;25.948;2023-04-08T03:27:54;101279.19;;;20.14;61.76
45285;BME280;31026;43.780;25.948;2023-04-08T03:30:22;101296.50;;;20.21;61.69
45285;BME280;31026;43.780;25.948;2023-04-08T03:32:51;101297.78;;;20.27;61.63
45285;BME280;31026;43.780;25.948;2023-04-08T03:35:19;101283.78;;;20.23;61.45
45285;BME280;31026;43.780;25.948;2023-04-08T03:37:50;101302.56;;;20.23;61.75
45285;BME280;31026;43.780;25.948;2023-04-08T03:40:19;101311.06;;;20.29;61.50
45285;BME280;31026;43.780;25.948;2023-04-08T03:42:47;101295.50;;;20.22;61.61
45285;BME280;31026;43.780;25.948;2023-04-08T03:45:15;101301.66;;;20.34;61.32
45285;BME280;31026;43.780;25.948;2023-04-08T03:47:44;101304.97;;;20.26;61.53
45285;BME280;31026;43.780;25.948;2023-04-08T03:50:12;101294.00;;;20.30;61.24
45285;BME280;31026;43.780;25.948;2023-04-08T03:52:40;101304.66;;;20.41;61.09
45285;BME280;31026;43.780;25.948;2023-04-08T03:55:11;101296.75;;;20.39;61.33
45285;BME280;31026;43.780;25.948;2023-04-08T03:57:39;101304.22;;;20.36;61.21
45285;BME280;31026;43.780;25.948;2023-04-08T04:00:08;101297.22;;;20.23;61.61
45285;BME280;31026;43.780;25.948;2023-04-08T04:02:37;101300.34;;;19.64;63.12
45285;BME280;31026;43.780;25.948;2023-04-08T04:05:05;101332.38;;;19.22;64.40
45285;BME280;31026;43.780;25.948;2023-04-08T04:07:34;101314.47;;;18.88;65.23
45285;BME280;31026;43.780;25.948;2023-04-08T04:10:02;101323.78;;;18.72;65.37
45285;BME280;31026;43.780;25.948;2023-04-08T04:12:33;101324.75;;;18.59;65.61
45285;BME280;31026;43.780;25.948;2023-04-08T04:15:01;101319.75;;;18.55;66.05
45285;BME280;31026;43.780;25.948;2023-04-08T04:17:30;101312.13;;;18.84;65.27
45285;BME280;31026;43.780;25.948;2023-04-08T04:19:58;101317.50;;;19.29;63.68
45285;BME280;31026;43.780;25.948;2023-04-08T04:22:26;101308.00;;;19.14;64.20
45285;BME280;31026;43.780;25.948;2023-04-08T04:24:55;101331.63;;;18.86;64.85
45285;BME280;31026;43.780;25.948;2023-04-08T04:27:23;101299.66;;;18.49;65.41
45285;BME280;31026;43.780;25.948;2023-04-08T04:29:54;101336.22;;;18.73;65.53
45285;BME280;31026;43.780;25.948;2023-04-08T04:32:22;101325.41;;;19.19;63.98
45285;BME280;31026;43.780;25.948;2023-04-08T04:34:50;101337.97;;;19.30;63.67
45285;BME280;31026;43.780;25.948;2023-04-08T04:37:19;101336.88;;;18.87;64.57
45285;BME280;31026;43.780;25.948;2023-04-08T04:39:47;101340.59;;;18.62;65.60
45285;BME280;31026;43.780;25.948;2023-04-08T04:42:15;101341.06;;;18.67;65.55
45285;BME280;31026;43.780;25.948;2023-04-08T04:44:43;101341.50;;;18.97;64.63
45285;BME280;31026;43.780;25.948;2023-04-08T04:47:14;101345.75;;;19.33;64.29
45285;BME280;31026;43.780;25.948;2023-04-08T04:49:43;101344.56;;;19.15;64.76
45285;BME280;31026;43.780;25.948;2023-04-08T04:52:11;101350.88;;;18.91;66.00
45285;BME280;31026;43.780;25.948;2023-04-08T04:54:40;101360.56;;;18.69;66.33
45285;BME280;31026;43.780;25.948;2023-04-08T04:57:08;101349.59;;;18.61;66.46
45285;BME280;31026;43.780;25.948;2023-04-08T04:59:36;101352.47;;;19.05;65.22
45285;BME280;31026;43.780;25.948;2023-04-08T05:02:05;101359.66;;;19.16;64.82
45285;BME280;31026;43.780;25.948;2023-04-08T05:04:36;101362.09;;;18.85;65.87
45285;BME280;31026;43.780;25.948;2023-04-08T05:07:04;101360.19;;;18.63;66.57
45285;BME280;31026;43.780;25.948;2023-04-08T05:09:32;101355.88;;;18.84;66.15
45285;BME280;31026;43.780;25.948;2023-04-08T05:12:01;101353.31;;;19.39;64.52
45285;BME280;31026;43.780;25.948;2023-04-08T05:14:29;101362.72;;;19.11;65.24
45285;BME280;31026;43.780;25.948;2023-04-08T05:16:57;101359.63;;;18.82;66.13
45285;BME280;31026;43.780;25.948;2023-04-08T05:19:25;101354.09;;;18.61;66.57
45285;BME280;31026;43.780;25.948;2023-04-08T05:21:56;101356.25;;;18.91;65.52
45285;BME280;31026;43.780;25.948;2023-04-08T05:24:25;101348.56;;;19.43;63.96
45285;BME280;31026;43.780;25.948;2023-04-08T05:26:53;101340.41;;;19.11;64.37
45285;BME280;31026;43.780;25.948;2023-04-08T05:29:22;101360.50;;;18.82;65.50
45285;BME280;31026;43.780;25.948;2023-04-08T05:31:50;101345.66;;;18.54;65.92
45285;BME280;31026;43.780;25.948;2023-04-08T05:34:18;101363.03;;;18.84;64.70
45285;BME280;31026;43.780;25.948;2023-04-08T05:36:47;101341.72;;;19.39;62.18
45285;BME280;31026;43.780;25.948;2023-04-08T05:39:19;101349.91;;;19.15;62.67
45285;BME280;31026;43.780;25.948;2023-04-08T05:41:47;101335.81;;;18.90;63.44
45285;BME280;31026;43.780;25.948;2023-04-08T05:44:15;101348.28;;;18.78;63.34
45285;BME280;31026;43.780;25.948;2023-04-08T05:46:44;101330.91;;;19.18;62.20
45285;BME280;31026;43.780;25.948;2023-04-08T05:49:12;101329.66;;;19.44;61.36
45285;BME280;31026;43.780;25.948;2023-04-08T05:51:41;101339.19;;;19.15;62.27
45285;BME280;31026;43.780;25.948;2023-04-08T05:54:09;101346.16;;;18.95;62.73
45285;BME280;31026;43.780;25.948;2023-04-08T05:56:40;101358.44;;;18.97;62.78
45285;BME280;31026;43.780;25.948;2023-04-08T05:59:10;101344.50;;;19.60;61.07
45285;BME280;31026;43.780;25.948;2023-04-08T06:01:38;101344.25;;;19.52;61.59
45285;BME280;31026;43.780;25.948;2023-04-08T06:04:07;101351.38;;;19.19;62.34
45285;BME280;31026;43.780;25.948;2023-04-08T06:06:36;101368.69;;;18.92;63.16
45285;BME280;31026;43.780;25.948;2023-04-08T06:09:04;101361.06;;;18.75;63.12
45285;BME280;31026;43.780;25.948;2023-04-08T06:11:34;101357.59;;;19.19;61.10
45285;BME280;31026;43.780;25.948;2023-04-08T06:14:05;101359.41;;;19.53;60.65
45285;BME280;31026;43.780;25.948;2023-04-08T06:16:33;101350.22;;;19.55;60.44
45285;BME280;31026;43.780;25.948;2023-04-08T06:19:01;101360.38;;;19.18;61.66
45285;BME280;31026;43.780;25.948;2023-04-08T06:21:29;101363.56;;;18.89;62.69
45285;BME280;31026;43.780;25.948;2023-04-08T06:23:58;101349.78;;;18.94;61.79
45285;BME280;31026;43.780;25.948;2023-04-08T06:26:26;101350.38;;;19.54;60.22
45285;BME280;31026;43.780;25.948;2023-04-08T06:28:54;101357.28;;;19.79;60.01
45285;BME280;31026;43.780;25.948;2023-04-08T06:31:25;101353.81;;;19.44;61.01
45285;BME280;31026;43.780;25.948;2023-04-08T06:33:53;101358.69;;;19.17;62.30
45285;BME280;31026;43.780;25.948;2023-04-08T06:36:22;101378.94;;;18.98;62.43
45285;BME280;31026;43.780;25.948;2023-04-08T06:38:50;101366.25;;;19.12;62.08
45285;BME280;31026;43.780;25.948;2023-04-08T06:41:19;101348.66;;;19.53;60.93
45285;BME280;31026;43.780;25.948;2023-04-08T06:43:47;101358.84;;;19.81;60.62
45285;BME280;31026;43.780;25.948;2023-04-08T06:46:15;101363.53;;;19.45;62.10
45285;BME280;31026;43.780;25.948;2023-04-08T06:48:46;101364.16;;;19.15;63.08
45285;BME280;31026;43.780;25.948;2023-04-08T06:51:14;101364.28;;;18.91;63.88
45285;BME280;31026;43.780;25.948;2023-04-08T06:53:43;101352.59;;;19.15;63.42
45285;BME280;31026;43.780;25.948;2023-04-08T06:56:11;101356.94;;;19.61;61.79
45285;BME280;31026;43.780;25.948;2023-04-08T06:58:39;101366.19;;;19.68;61.17
45285;BME280;31026;43.780;25.948;2023-04-08T07:01:08;101357.97;;;19.26;62.19
45285;BME280;31026;43.780;25.948;2023-04-08T07:03:36;101358.00;;;18.68;61.50
45285;BME280;31026;43.780;25.948;2023-04-08T07:06:07;101361.59;;;18.80;59.56
45285;BME280;31026;43.780;25.948;2023-04-08T07:08:35;101362.47;;;19.25;59.37
45285;BME280;31026;43.780;25.948;2023-04-08T07:11:04;101344.25;;;19.63;58.93
45285;BME280;31026;43.780;25.948;2023-04-08T07:13:32;101353.91;;;19.32;59.83
45285;BME280;31026;43.780;25.948;2023-04-08T07:16:00;101344.44;;;19.05;60.60
45285;BME280;31026;43.780;25.948;2023-04-08T07:18:29;101369.28;;;18.84;61.71
45285;BME280;31026;43.780;25.948;2023-04-08T07:20:57;101348.19;;;19.14;60.93
45285;BME280;31026;43.780;25.948;2023-04-08T07:23:28;101353.31;;;19.39;60.41
45285;BME280;31026;43.780;25.948;2023-04-08T07:26:00;101348.69;;;19.19;61.19
45285;BME280;31026;43.780;25.948;2023-04-08T07:28:29;101350.41;;;18.97;62.03
45285;BME280;31026;43.780;25.948;2023-04-08T07:31:06;101366.19;;;18.78;62.70
45285;BME280;31026;43.780;25.948;2023-04-08T07:33:35;101378.84;;;18.64;62.84
45285;BME280;31026;43.780;25.948;2023-04-08T07:36:03;101382.69;;;18.49;63.05
45285;BME280;31026;43.780;25.948;2023-04-08T07:38:34;101370.13;;;18.38;63.48
45285;BME280;31026;43.780;25.948;2023-04-08T07:41:03;101368.91;;;18.42;63.53
45285;BME280;31026;43.780;25.948;2023-04-08T07:43:31;101378.16;;;18.38;63.67
45285;BME280;31026;43.780;25.948;2023-04-08T07:46:01;101379.00;;;18.39;63.67
45285;BME280;31026;43.780;25.948;2023-04-08T07:48:30;101352.44;;;18.36;63.61
45285;BME280;31026;43.780;25.948;2023-04-08T07:51:01;101368.28;;;18.39;63.64
45285;BME280;31026;43.780;25.948;2023-04-08T07:53:30;101372.00;;;18.25;64.11
45285;BME280;31026;43.780;25.948;2023-04-08T07:56:01;101365.06;;;18.22;64.00
45285;BME280;31026;43.780;25.948;2023-04-08T07:58:30;101362.50;;;18.21;64.13
45285;BME280;31026;43.780;25.948;2023-04-08T08:00:59;101374.16;;;18.20;64.29
45285;BME280;31026;43.780;25.948;2023-04-08T08:03:27;101380.63;;;18.17;64.40
45285;BME280;31026;43.780;25.948;2023-04-08T08:05:56;101367.25;;;18.17;64.42
45285;BME280;31026;43.780;25.948;2023-04-08T08:08:25;101376.63;;;18.23;64.58
45285;BME280;31026;43.780;25.948;2023-04-08T08:10:53;101376.06;;;18.31;64.21
45285;BME280;31026;43.780;25.948;2023-04-08T08:13:24;101368.34;;;18.26;64.40
45285;BME280;31026;43.780;25.948;2023-04-08T08:15:53;101370.44;;;18.22;64.54
45285;BME280;31026;43.780;25.948;2023-04-08T08:18:21;101364.09;;;18.23;64.48
45285;BME280;31026;43.780;25.948;2023-04-08T08:20:49;101367.50;;;18.25;64.36
45285;BME280;31026;43.780;25.948;2023-04-08T08:23:17;101354.13;;;18.25;64.60
45285;BME280;31026;43.780;25.948;2023-04-08T08:25:46;101361.63;;;18.20;64.50
45285;BME280;31026;43.780;25.948;2023-04-08T08:28:14;101365.94;;;18.23;64.88
45285;BME280;31026;43.780;25.948;2023-04-08T08:30:45;101359.22;;;18.17;64.87
45285;BME280;31026;43.780;25.948;2023-04-08T08:33:13;101370.75;;;18.18;64.69
45285;BME280;31026;43.780;25.948;2023-04-08T08:35:41;101370.66;;;18.19;64.89
45285;BME280;31026;43.780;25.948;2023-04-08T08:38:10;101390.34;;;18.18;65.03
45285;BME280;31026;43.780;25.948;2023-04-08T08:40:39;101369.53;;;18.11;65.12
45285;BME280;31026;43.780;25.948;2023-04-08T08:43:08;101365.03;;;18.11;65.11
45285;BME280;31026;43.780;25.948;2023-04-08T08:45:37;101368.19;;;18.16;64.91
45285;BME280;31026;43.780;25.948;2023-04-08T08:48:08;101363.56;;;18.18;62.50
45285;BME280;31026;43.780;25.948;2023-04-08T08:50:37;101378.56;;;18.21;62.84
45285;BME280;31026;43.780;25.948;2023-04-08T08:53:05;101371.59;;;18.18;63.62
45285;BME280;31026;43.780;25.948;2023-04-08T08:55:33;101369.06;;;18.17;63.77
45285;BME280;31026;43.780;25.948;2023-04-08T08:58:02;101368.19;;;18.16;64.02
45285;BME280;31026;43.780;25.948;2023-04-08T09:00:31;101360.28;;;18.15;64.27
45285;BME280;31026;43.780;25.948;2023-04-08T09:03:15;101366.72;;;18.12;64.13
45285;BME280;31026;43.780;25.948;2023-04-08T09:05:47;101379.34;;;18.10;64.37
45285;BME280;31026;43.780;25.948;2023-04-08T09:08:22;101357.00;;;18.11;64.25
45285;BME280;31026;43.780;25.948;2023-04-08T09:10:51;101369.19;;;18.15;64.00
45285;BME280;31026;43.780;25.948;2023-04-08T09:13:19;101375.16;;;18.19;63.98
45285;BME280;31026;43.780;25.948;2023-04-08T09:16:01;101380.00;;;18.14;64.54
45285;BME280;31026;43.780;25.948;2023-04-08T09:18:33;101380.84;;;18.14;65.15
45285;BME280;31026;43.780;25.948;2023-04-08T09:21:02;101377.84;;;18.19;64.64
45285;BME280;31026;43.780;25.948;2023-04-08T09:23:36;101368.44;;;18.13;63.91
45285;BME280;31026;43.780;25.948;2023-04-08T09:26:08;101355.78;;;18.15;64.45
45285;BME280;31026;43.780;25.948;2023-04-08T09:28:37;101381.78;;;18.73;63.35
45285;BME280;31026;43.780;25.948;2023-04-08T09:31:17;101368.06;;;19.34;62.09
45285;BME280;31026;43.780;25.948;2023-04-08T09:33:48;101359.72;;;19.59;61.42
45285;BME280;31026;43.780;25.948;2023-04-08T09:36:16;101356.31;;;19.68;59.95
45285;BME280;31026;43.780;25.948;2023-04-08T09:38:45;101356.81;;;19.62;59.85
45285;BME280;31026;43.780;25.948;2023-04-08T09:41:14;101358.41;;;19.76;58.67
45285;BME280;31026;43.780;25.948;2023-04-08T09:43:43;101370.97;;;19.53;60.15
45285;BME280;31026;43.780;25.948;2023-04-08T09:46:14;101364.28;;;19.14;61.00
45285;BME280;31026;43.780;25.948;2023-04-08T09:48:54;101363.81;;;18.97;61.66
45285;BME280;31026;43.780;25.948;2023-04-08T09:51:23;101367.00;;;19.02;61.43
45285;BME280;31026;43.780;25.948;2023-04-08T09:53:54;101359.41;;;19.53;60.26
45285;BME280;31026;43.780;25.948;2023-04-08T09:56:23;101370.13;;;19.53;60.57
45285;BME280;31026;43.780;25.948;2023-04-08T09:58:54;101371.38;;;19.15;61.73
45285;BME280;31026;43.780;25.948;2023-04-08T10:01:27;101376.34;;;18.85;62.59
45285;BME280;31026;43.780;25.948;2023-04-08T10:03:58;101374.28;;;18.89;62.44
45285;BME280;31026;43.780;25.948;2023-04-08T10:06:28;101368.56;;;19.39;61.08
45285;BME280;31026;43.780;25.948;2023-04-08T10:08:58;101367.31;;;19.54;60.42
45285;BME280;31026;43.780;25.948;2023-04-08T10:11:26;101372.59;;;19.22;61.30
45285;BME280;31026;43.780;25.948;2023-04-08T10:13:55;101383.78;;;18.93;62.02
45285;BME280;31026;43.780;25.948;2023-04-08T10:16:24;101368.19;;;18.87;62.72
45285;BME280;31026;43.780;25.948;2023-04-08T10:18:53;101361.38;;;19.28;61.49
45285;BME280;31026;43.780;25.948;2023-04-08T10:21:34;101352.91;;;19.55;60.75
45285;BME280;31026;43.780;25.948;2023-04-08T10:24:07;101355.13;;;19.27;61.53
45285;BME280;31026;43.780;25.948;2023-04-08T10:26:36;101372.56;;;18.99;62.61
45285;BME280;31026;43.780;25.948;2023-04-08T10:31:48;101353.34;;;19.28;62.08
45285;BME280;31026;43.780;25.948;2023-04-08T10:34:16;101335.75;;;19.58;61.13
45285;BME280;31026;43.780;25.948;2023-04-08T10:36:48;101365.63;;;19.31;61.93
45285;BME280;31026;43.780;25.948;2023-04-08T10:39:16;101354.53;;;19.01;62.63
45285;BME280;31026;43.780;25.948;2023-04-08T10:41:46;101355.63;;;18.87;63.07
45285;BME280;31026;43.780;25.948;2023-04-08T10:44:14;101335.28;;;19.19;62.47
45285;BME280;31026;43.780;25.948;2023-04-08T10:46:43;101343.63;;;19.59;61.40
45285;BME280;31026;43.780;25.948;2023-04-08T10:49:12;101334.06;;;19.34;61.90
45285;BME280;31026;43.780;25.948;2023-04-08T10:51:40;101330.06;;;19.06;62.42
45285;BME280;31026;43.780;25.948;2023-04-08T10:54:12;101336.63;;;18.91;62.78
45285;BME280;31026;43.780;25.948;2023-04-08T10:56:44;101334.94;;;19.01;62.95
45285;BME280;31026;43.780;25.948;2023-04-08T10:59:13;101322.44;;;19.56;61.51
45285;BME280;31026;43.780;25.948;2023-04-08T11:01:44;101339.16;;;19.48;61.71
45285;BME280;31026;43.780;25.948;2023-04-08T11:04:13;101341.50;;;19.19;62.46
45285;BME280;31026;43.780;25.948;2023-04-08T11:06:43;101336.03;;;18.87;62.38
45285;BME280;31026;43.780;25.948;2023-04-08T11:09:14;101342.06;;;18.78;62.85
45285;BME280;31026;43.780;25.948;2023-04-08T11:11:43;101315.16;;;19.36;61.41
45285;BME280;31026;43.780;25.948;2023-04-08T11:14:12;101309.38;;;19.63;60.33
45285;BME280;31026;43.780;25.948;2023-04-08T11:16:41;101317.25;;;19.32;61.20
45285;BME280;31026;43.780;25.948;2023-04-08T11:19:10;101323.84;;;19.05;61.53
45285;BME280;31026;43.780;25.948;2023-04-08T11:21:41;101321.78;;;18.86;62.30
45285;BME280;31026;43.780;25.948;2023-04-08T11:24:09;101323.38;;;19.00;62.48
45285;BME280;31026;43.780;25.948;2023-04-08T11:26:43;101308.91;;;19.58;61.14
45285;BME280;31026;43.780;25.948;2023-04-08T11:29:12;101317.22;;;19.43;60.99
45285;BME280;31026;43.780;25.948;2023-04-08T11:31:41;101325.28;;;19.10;62.28
45285;BME280;31026;43.780;25.948;2023-04-08T11:34:11;101308.59;;;18.83;62.56
45285;BME280;31026;43.780;25.948;2023-04-08T11:36:39;101325.66;;;18.94;62.62
45285;BME280;31026;43.780;25.948;2023-04-08T11:39:08;101311.00;;;19.54;61.03
45285;BME280;31026;43.780;25.948;2023-04-08T11:41:36;101303.94;;;19.42;61.42
45285;BME280;31026;43.780;25.948;2023-04-08T11:44:08;101297.03;;;19.17;61.99
45285;BME280;31026;43.780;25.948;2023-04-08T11:46:37;101291.84;;;19.47;61.45
45285;BME280;31026;43.780;25.948;2023-04-08T11:49:06;101288.28;;;20.02;59.83
45285;BME280;31026;43.780;25.948;2023-04-08T11:54:24;101297.50;;;20.51;58.85
45285;BME280;31026;43.780;25.948;2023-04-08T11:56:53;101268.41;;;20.56;58.70
45285;BME280;31026;43.780;25.948;2023-04-08T11:59:25;101275.25;;;20.60;58.97
45285;BME280;31026;43.780;25.948;2023-04-08T12:01:53;101269.41;;;20.55;58.88
45285;BME280;31026;43.780;25.948;2023-04-08T12:04:21;101267.56;;;20.35;59.40
45285;BME280;31026;43.780;25.948;2023-04-08T12:06:49;101275.63;;;20.35;59.15
45285;BME280;31026;43.780;25.948;2023-04-08T12:09:18;101257.34;;;20.50;58.49
45285;BME280;31026;43.780;25.948;2023-04-08T12:11:46;101255.31;;;20.42;58.14
45285;BME280;31026;43.780;25.948;2023-04-08T12:14:14;101280.94;;;20.46;58.32
45285;BME280;31026;43.780;25.948;2023-04-08T12:16:45;101271.09;;;20.56;58.29
45285;BME280;31026;43.780;25.948;2023-04-08T12:19:13;101274.00;;;20.64;58.25
45285;BME280;31026;43.780;25.948;2023-04-08T12:21:42;101253.50;;;20.63;58.20
45285;BME280;31026;43.780;25.948;2023-04-08T12:24:10;101282.56;;;20.58;57.92
45285;BME280;31026;43.780;25.948;2023-04-08T12:26:38;101272.09;;;20.55;58.13
45285;BME280;31026;43.780;25.948;2023-04-08T12:29:06;101284.47;;;20.46;58.82
45285;BME280;31026;43.780;25.948;2023-04-08T12:31:36;101278.25;;;20.46;58.45
45285;BME280;31026;43.780;25.948;2023-04-08T12:34:06;101263.13;;;20.66;58.35
45285;BME280;31026;43.780;25.948;2023-04-08T12:36:35;101282.78;;;20.66;58.33
45285;BME280;31026;43.780;25.948;2023-04-08T12:39:03;101280.63;;;20.60;58.63
45285;BME280;31026;43.780;25.948;2023-04-08T12:41:31;101278.13;;;20.48;58.92
45285;BME280;31026;43.780;25.948;2023-04-08T12:44:00;101268.28;;;20.37;58.69
45285;BME280;31026;43.780;25.948;2023-04-08T12:46:28;101268.88;;;20.40;59.02
45285;BME280;31026;43.780;25.948;2023-04-08T12:48:56;101275.69;;;20.44;58.95
45285;BME280;31026;43.780;25.948;2023-04-08T12:51:27;101267.94;;;20.51;59.16
45285;BME280;31026;43.780;25.948;2023-04-08T12:53:56;101257.59;;;20.46;59.42
45285;BME280;31026;43.780;25.948;2023-04-08T12:56:24;101276.09;;;20.40;59.49